sensor_id;sensor_type;location;lat;lon;timestamp;P1;durP1;ratioP1;P2;durP2;ratioP2
12725;SDS011;6427;49.754;6.106;2023-08-08T00:00:52;1.83;;;1.50;;
12725;SDS011;6427;49.754;6.106;2023-08-08T00:03:19;1.83;;;1.43;;
12725;SDS011;6427;49.754;6.106;2023-08-08T00:05:47;2.33;;;1.40;;
12725;SDS011;6427;49.754;6.106;2023-08-08T00:08:14;3.43;;;1.83;;
12725;SDS011;6427;49.754;6.106;2023-08-08T00:10:42;2.73;;;1.53;;
12725;SDS011;6427;49.754;6.106;2023-08-08T00:13:10;4.10;;;1.10;;
12725;SDS011;6427;49.754;6.106;2023-08-08T00:15:37;2.87;;;1.50;;
12725;SDS011;6427;49.754;6.106;2023-08-08T00:18:05;3.63;;;1.27;;
12725;SDS011;6427;49.754;6.106;2023-08-08T00:20:32;3.20;;;1.50;;
12725;SDS011;6427;49.754;6.106;2023-08-08T00:23:00;2.87;;;1.07;;
12725;SDS011;6427;49.754;6.106;2023-08-08T00:25:28;3.20;;;1.10;;
12725;SDS011;6427;49.754;6.106;2023-08-08T00:27:56;3.13;;;1.20;;
12725;SDS011;6427;49.754;6.106;2023-08-08T00:30:24;1.93;;;1.00;;
12725;SDS011;6427;49.754;6.106;2023-08-08T00:32:52;1.83;;;1.03;;
12725;SDS011;6427;49.754;6.106;2023-08-08T00:35:20;2.40;;;0.80;;
12725;SDS011;6427;49.754;6.106;2023-08-08T00:37:48;2.60;;;1.20;;
12725;SDS011;6427;49.754;6.106;2023-08-08T00:40:16;2.30;;;1.00;;
12725;SDS011;6427;49.754;6.106;2023-08-08T00:42:44;2.97;;;0.80;;
12725;SDS011;6427;49.754;6.106;2023-08-08T00:45:11;1.75;;;1.37;;
12725;SDS011;6427;49.754;6.106;2023-08-08T00:47:39;2.57;;;1.03;;
12725;SDS011;6427;49.754;6.106;2023-08-08T00:50:07;2.23;;;1.27;;
12725;SDS011;6427;49.754;6.106;2023-08-08T00:52:34;0.97;;;0.73;;
12725;SDS011;6427;49.754;6.106;2023-08-08T00:55:02;3.53;;;1.00;;
12725;SDS011;6427;49.754;6.106;2023-08-08T00:57:30;3.07;;;1.30;;
12725;SDS011;6427;49.754;6.106;2023-08-08T00:59:59;2.60;;;1.00;;
12725;SDS011;6427;49.754;6.106;2023-08-08T01:02:26;3.40;;;1.17;;
12725;SDS011;6427;49.754;6.106;2023-08-08T01:04:54;2.60;;;1.30;;
12725;SDS011;6427;49.754;6.106;2023-08-08T01:07:33;1.00;;;0.90;;
12725;SDS011;6427;49.754;6.106;2023-08-08T01:10:03;1.80;;;1.00;;
12725;SDS011;6427;49.754;6.106;2023-08-08T01:12:28;4.43;;;1.47;;
12725;SDS011;6427;49.754;6.106;2023-08-08T01:14:56;1.10;;;1.00;;
12725;SDS011;6427;49.754;6.106;2023-08-08T01:17:24;3.73;;;1.10;;
12725;SDS011;6427;49.754;6.106;2023-08-08T01:19:51;2.13;;;1.37;;
12725;SDS011;6427;49.754;6.106;2023-08-08T01:22:24;2.13;;;1.10;;
12725;SDS011;6427;49.754;6.106;2023-08-08T01:24:46;1.30;;;1.20;;
12725;SDS011;6427;49.754;6.106;2023-08-08T01:27:14;3.67;;;1.07;;
12725;SDS011;6427;49.754;6.106;2023-08-08T01:29:42;2.00;;;1.20;;
12725;SDS011;6427;49.754;6.106;2023-08-08T01:32:10;1.07;;;0.97;;
12725;SDS011;6427;49.754;6.106;2023-08-08T01:34:38;3.53;;;1.30;;
12725;SDS011;6427;49.754;6.106;2023-08-08T01:39:39;2.60;;;1.10;;
12725;SDS011;6427;49.754;6.106;2023-08-08T01:42:07;3.50;;;1.00;;
12725;SDS011;6427;49.754;6.106;2023-08-08T01:44:34;1.00;;;0.87;;
12725;SDS011;6427;49.754;6.106;2023-08-08T01:47:02;4.20;;;0.90;;
12725;SDS011;6427;49.754;6.106;2023-08-08T01:49:30;1.70;;;1.00;;
12725;SDS011;6427;49.754;6.106;2023-08-08T01:51:58;3.90;;;1.37;;
12725;SDS011;6427;49.754;6.106;2023-08-08T01:54:26;1.70;;;1.20;;
12725;SDS011;6427;49.754;6.106;2023-08-08T01:56:53;1.63;;;0.90;;
12725;SDS011;6427;49.754;6.106;2023-08-08T01:59:21;1.60;;;1.10;;
12725;SDS011;6427;49.754;6.106;2023-08-08T02:01:48;3.90;;;1.50;;
12725;SDS011;6427;49.754;6.106;2023-08-08T02:04:16;1.67;;;1.00;;
12725;SDS011;6427;49.754;6.106;2023-08-08T02:06:44;2.33;;;1.00;;
12725;SDS011;6427;49.754;6.106;2023-08-08T02:09:11;5.37;;;0.93;;
12725;SDS011;6427;49.754;6.106;2023-08-08T02:11:39;3.17;;;1.30;;
12725;SDS011;6427;49.754;6.106;2023-08-08T02:14:06;4.07;;;1.30;;
12725;SDS011;6427;49.754;6.106;2023-08-08T02:16:34;1.53;;;1.40;;
12725;SDS011;6427;49.754;6.106;2023-08-08T02:19:02;4.30;;;1.30;;
12725;SDS011;6427;49.754;6.106;2023-08-08T02:21:29;2.43;;;1.20;;
12725;SDS011;6427;49.754;6.106;2023-08-08T02:23:57;2.77;;;1.33;;
12725;SDS011;6427;49.754;6.106;2023-08-08T02:26:24;2.00;;;0.90;;
12725;SDS011;6427;49.754;6.106;2023-08-08T02:28:52;1.90;;;1.10;;
12725;SDS011;6427;49.754;6.106;2023-08-08T02:31:19;1.93;;;0.90;;
12725;SDS011;6427;49.754;6.106;2023-08-08T02:33:48;2.00;;;0.80;;
12725;SDS011;6427;49.754;6.106;2023-08-08T02:36:16;2.57;;;1.00;;
12725;SDS011;6427;49.754;6.106;2023-08-08T02:38:44;1.60;;;1.20;;
12725;SDS011;6427;49.754;6.106;2023-08-08T02:41:11;3.80;;;1.10;;
12725;SDS011;6427;49.754;6.106;2023-08-08T02:43:39;2.87;;;1.30;;
12725;SDS011;6427;49.754;6.106;2023-08-08T02:46:07;2.67;;;1.30;;
12725;SDS011;6427;49.754;6.106;2023-08-08T02:48:34;4.47;;;1.58;;
12725;SDS011;6427;49.754;6.106;2023-08-08T02:51:02;2.77;;;1.30;;
12725;SDS011;6427;49.754;6.106;2023-08-08T02:53:29;1.73;;;1.23;;
12725;SDS011;6427;49.754;6.106;2023-08-08T02:55:57;4.30;;;1.40;;
12725;SDS011;6427;49.754;6.106;2023-08-08T02:58:25;3.50;;;1.53;;
12725;SDS011;6427;49.754;6.106;2023-08-08T03:00:53;1.63;;;1.20;;
12725;SDS011;6427;49.754;6.106;2023-08-08T03:03:21;4.93;;;1.43;;
12725;SDS011;6427;49.754;6.106;2023-08-08T03:05:48;3.67;;;1.45;;
12725;SDS011;6427;49.754;6.106;2023-08-08T03:08:16;3.13;;;1.03;;
12725;SDS011;6427;49.754;6.106;2023-08-08T03:10:43;2.23;;;1.40;;
12725;SDS011;6427;49.754;6.106;2023-08-08T03:13:12;3.20;;;1.20;;
12725;SDS011;6427;49.754;6.106;2023-08-08T03:15:39;2.93;;;1.30;;
12725;SDS011;6427;49.754;6.106;2023-08-08T03:18:07;1.83;;;1.07;;
12725;SDS011;6427;49.754;6.106;2023-08-08T03:20:35;3.20;;;1.40;;
12725;SDS011;6427;49.754;6.106;2023-08-08T03:23:02;2.73;;;1.30;;
12725;SDS011;6427;49.754;6.106;2023-08-08T03:25:30;1.80;;;1.33;;
12725;SDS011;6427;49.754;6.106;2023-08-08T03:27:57;2.93;;;1.20;;
12725;SDS011;6427;49.754;6.106;2023-08-08T03:30:25;3.00;;;1.07;;
12725;SDS011;6427;49.754;6.106;2023-08-08T03:32:53;2.90;;;1.07;;
12725;SDS011;6427;49.754;6.106;2023-08-08T03:35:20;2.93;;;1.00;;
12725;SDS011;6427;49.754;6.106;2023-08-08T03:37:48;1.57;;;1.17;;
12725;SDS011;6427;49.754;6.106;2023-08-08T03:40:15;4.83;;;1.40;;
12725;SDS011;6427;49.754;6.106;2023-08-08T03:42:43;1.33;;;1.07;;
12725;SDS011;6427;49.754;6.106;2023-08-08T03:45:11;1.30;;;0.93;;
12725;SDS011;6427;49.754;6.106;2023-08-08T03:47:38;4.03;;;1.60;;
12725;SDS011;6427;49.754;6.106;2023-08-08T03:50:06;3.87;;;1.70;;
12725;SDS011;6427;49.754;6.106;2023-08-08T03:52:34;3.23;;;1.47;;
12725;SDS011;6427;49.754;6.106;2023-08-08T03:55:02;2.47;;;1.20;;
12725;SDS011;6427;49.754;6.106;2023-08-08T03:57:30;2.87;;;1.50;;
12725;SDS011;6427;49.754;6.106;2023-08-08T03:59:57;4.63;;;1.70;;
12725;SDS011;6427;49.754;6.106;2023-08-08T04:02:25;4.40;;;1.73;;
12725;SDS011;6427;49.754;6.106;2023-08-08T04:04:53;4.27;;;1.50;;
12725;SDS011;6427;49.754;6.106;2023-08-08T04:07:20;2.70;;;1.63;;
12725;SDS011;6427;49.754;6.106;2023-08-08T04:09:49;2.77;;;1.40;;
12725;SDS011;6427;49.754;6.106;2023-08-08T04:12:17;2.47;;;1.40;;
12725;SDS011;6427;49.754;6.106;2023-08-08T04:14:44;3.77;;;1.93;;
12725;SDS011;6427;49.754;6.106;2023-08-08T04:17:12;2.63;;;1.37;;
12725;SDS011;6427;49.754;6.106;2023-08-08T04:19:39;6.13;;;1.33;;
12725;SDS011;6427;49.754;6.106;2023-08-08T04:22:07;2.57;;;1.70;;
12725;SDS011;6427;49.754;6.106;2023-08-08T04:24:35;5.72;;;2.10;;
12725;SDS011;6427;49.754;6.106;2023-08-08T04:27:02;3.13;;;1.57;;
12725;SDS011;6427;49.754;6.106;2023-08-08T04:29:30;5.63;;;1.67;;
12725;SDS011;6427;49.754;6.106;2023-08-08T04:31:57;3.07;;;1.53;;
12725;SDS011;6427;49.754;6.106;2023-08-08T04:34:25;2.30;;;1.50;;
12725;SDS011;6427;49.754;6.106;2023-08-08T04:36:53;2.30;;;1.50;;
12725;SDS011;6427;49.754;6.106;2023-08-08T04:39:20;4.87;;;1.80;;
12725;SDS011;6427;49.754;6.106;2023-08-08T04:41:48;4.53;;;1.50;;
12725;SDS011;6427;49.754;6.106;2023-08-08T04:44:15;8.97;;;1.70;;
12725;SDS011;6427;49.754;6.106;2023-08-08T04:46:43;8.40;;;2.10;;
12725;SDS011;6427;49.754;6.106;2023-08-08T04:49:11;4.10;;;1.47;;
12725;SDS011;6427;49.754;6.106;2023-08-08T04:51:38;4.00;;;1.60;;
12725;SDS011;6427;49.754;6.106;2023-08-08T04:54:06;3.77;;;1.63;;
12725;SDS011;6427;49.754;6.106;2023-08-08T04:56:33;3.73;;;1.60;;
12725;SDS011;6427;49.754;6.106;2023-08-08T04:59:02;3.30;;;1.60;;
12725;SDS011;6427;49.754;6.106;2023-08-08T05:01:29;2.00;;;1.60;;
12725;SDS011;6427;49.754;6.106;2023-08-08T05:03:57;3.87;;;1.80;;
12725;SDS011;6427;49.754;6.106;2023-08-08T05:06:25;3.87;;;1.80;;
12725;SDS011;6427;49.754;6.106;2023-08-08T05:08:52;2.80;;;1.57;;
12725;SDS011;6427;49.754;6.106;2023-08-08T05:11:21;2.23;;;1.63;;
12725;SDS011;6427;49.754;6.106;2023-08-08T05:13:48;5.60;;;2.10;;
12725;SDS011;6427;49.754;6.106;2023-08-08T05:16:16;5.93;;;2.10;;
12725;SDS011;6427;49.754;6.106;2023-08-08T05:18:43;5.40;;;2.60;;
12725;SDS011;6427;49.754;6.106;2023-08-08T05:21:12;5.93;;;2.50;;
12725;SDS011;6427;49.754;6.106;2023-08-08T05:23:39;4.13;;;2.17;;
12725;SDS011;6427;49.754;6.106;2023-08-08T05:26:07;5.37;;;2.50;;
12725;SDS011;6427;49.754;6.106;2023-08-08T05:28:35;5.03;;;2.20;;
12725;SDS011;6427;49.754;6.106;2023-08-08T05:31:02;5.55;;;2.80;;
12725;SDS011;6427;49.754;6.106;2023-08-08T05:33:30;6.40;;;2.73;;
12725;SDS011;6427;49.754;6.106;2023-08-08T05:35:57;4.47;;;2.50;;
12725;SDS011;6427;49.754;6.106;2023-08-08T05:38:25;3.60;;;2.50;;
12725;SDS011;6427;49.754;6.106;2023-08-08T05:40:53;3.47;;;2.57;;
12725;SDS011;6427;49.754;6.106;2023-08-08T05:43:20;4.77;;;2.33;;
12725;SDS011;6427;49.754;6.106;2023-08-08T05:45:48;3.90;;;2.30;;
12725;SDS011;6427;49.754;6.106;2023-08-08T05:48:15;6.10;;;2.53;;
12725;SDS011;6427;49.754;6.106;2023-08-08T05:50:43;4.63;;;2.40;;
12725;SDS011;6427;49.754;6.106;2023-08-08T05:53:11;4.65;;;2.67;;
12725;SDS011;6427;49.754;6.106;2023-08-08T05:55:40;4.53;;;2.47;;
12725;SDS011;6427;49.754;6.106;2023-08-08T05:58:07;4.93;;;2.57;;
12725;SDS011;6427;49.754;6.106;2023-08-08T06:00:34;5.17;;;2.40;;
12725;SDS011;6427;49.754;6.106;2023-08-08T06:03:02;6.07;;;2.78;;
12725;SDS011;6427;49.754;6.106;2023-08-08T06:05:30;6.13;;;2.43;;
12725;SDS011;6427;49.754;6.106;2023-08-08T06:07:58;4.70;;;2.27;;
12725;SDS011;6427;49.754;6.106;2023-08-08T06:10:25;5.70;;;2.50;;
12725;SDS011;6427;49.754;6.106;2023-08-08T06:12:53;5.97;;;2.73;;
12725;SDS011;6427;49.754;6.106;2023-08-08T06:15:21;10.00;;;2.30;;
12725;SDS011;6427;49.754;6.106;2023-08-08T06:17:48;5.77;;;2.50;;
12725;SDS011;6427;49.754;6.106;2023-08-08T06:20:17;5.45;;;2.80;;
12725;SDS011;6427;49.754;6.106;2023-08-08T06:22:44;6.90;;;2.83;;
12725;SDS011;6427;49.754;6.106;2023-08-08T06:25:12;5.57;;;2.27;;
12725;SDS011;6427;49.754;6.106;2023-08-08T06:27:39;4.90;;;2.27;;
12725;SDS011;6427;49.754;6.106;2023-08-08T06:30:07;5.22;;;2.70;;
12725;SDS011;6427;49.754;6.106;2023-08-08T06:32:35;5.07;;;2.55;;
12725;SDS011;6427;49.754;6.106;2023-08-08T06:35:02;7.47;;;2.10;;
12725;SDS011;6427;49.754;6.106;2023-08-08T06:37:30;3.30;;;1.80;;
12725;SDS011;6427;49.754;6.106;2023-08-08T06:39:57;4.30;;;2.30;;
12725;SDS011;6427;49.754;6.106;2023-08-08T06:42:25;8.40;;;2.37;;
12725;SDS011;6427;49.754;6.106;2023-08-08T06:44:53;5.13;;;2.47;;
12725;SDS011;6427;49.754;6.106;2023-08-08T06:47:20;4.20;;;2.10;;
12725;SDS011;6427;49.754;6.106;2023-08-08T06:49:48;3.27;;;2.00;;
12725;SDS011;6427;49.754;6.106;2023-08-08T06:52:16;4.43;;;2.10;;
12725;SDS011;6427;49.754;6.106;2023-08-08T06:54:44;3.33;;;2.40;;
12725;SDS011;6427;49.754;6.106;2023-08-08T06:57:12;6.85;;;2.83;;
12725;SDS011;6427;49.754;6.106;2023-08-08T06:59:40;4.60;;;2.00;;
12725;SDS011;6427;49.754;6.106;2023-08-08T07:02:07;5.62;;;2.70;;
12725;SDS011;6427;49.754;6.106;2023-08-08T07:04:35;14.27;;;2.77;;
12725;SDS011;6427;49.754;6.106;2023-08-08T07:07:03;5.10;;;2.03;;
12725;SDS011;6427;49.754;6.106;2023-08-08T07:09:30;7.00;;;2.40;;
12725;SDS011;6427;49.754;6.106;2023-08-08T07:11:58;5.63;;;2.10;;
12725;SDS011;6427;49.754;6.106;2023-08-08T07:14:26;8.77;;;2.17;;
12725;SDS011;6427;49.754;6.106;2023-08-08T07:16:53;7.30;;;2.23;;
12725;SDS011;6427;49.754;6.106;2023-08-08T07:19:21;4.07;;;2.33;;
12725;SDS011;6427;49.754;6.106;2023-08-08T07:21:49;2.10;;;1.57;;
12725;SDS011;6427;49.754;6.106;2023-08-08T07:24:17;3.60;;;2.00;;
12725;SDS011;6427;49.754;6.106;2023-08-08T07:26:45;3.23;;;2.13;;
12725;SDS011;6427;49.754;6.106;2023-08-08T07:29:13;6.47;;;1.97;;
12725;SDS011;6427;49.754;6.106;2023-08-08T07:31:40;5.67;;;2.03;;
12725;SDS011;6427;49.754;6.106;2023-08-08T07:34:08;5.20;;;1.70;;
12725;SDS011;6427;49.754;6.106;2023-08-08T07:36:35;2.83;;;1.43;;
12725;SDS011;6427;49.754;6.106;2023-08-08T07:39:03;5.07;;;2.10;;
12725;SDS011;6427;49.754;6.106;2023-08-08T07:41:31;6.50;;;1.93;;
12725;SDS011;6427;49.754;6.106;2023-08-08T07:43:58;6.50;;;2.10;;
12725;SDS011;6427;49.754;6.106;2023-08-08T07:46:27;2.87;;;1.50;;
12725;SDS011;6427;49.754;6.106;2023-08-08T07:48:54;5.03;;;2.23;;
12725;SDS011;6427;49.754;6.106;2023-08-08T07:51:22;5.43;;;2.42;;
12725;SDS011;6427;49.754;6.106;2023-08-08T07:53:49;4.57;;;2.30;;
12725;SDS011;6427;49.754;6.106;2023-08-08T07:56:17;5.43;;;1.93;;
12725;SDS011;6427;49.754;6.106;2023-08-08T07:58:45;3.97;;;2.35;;
12725;SDS011;6427;49.754;6.106;2023-08-08T08:01:12;4.83;;;2.20;;
12725;SDS011;6427;49.754;6.106;2023-08-08T08:03:40;5.33;;;2.10;;
12725;SDS011;6427;49.754;6.106;2023-08-08T08:06:07;6.03;;;2.15;;
12725;SDS011;6427;49.754;6.106;2023-08-08T08:08:35;5.33;;;2.07;;
12725;SDS011;6427;49.754;6.106;2023-08-08T08:11:03;9.70;;;2.20;;
12725;SDS011;6427;49.754;6.106;2023-08-08T08:13:30;7.27;;;2.30;;
12725;SDS011;6427;49.754;6.106;2023-08-08T08:15:58;5.75;;;2.20;;
12725;SDS011;6427;49.754;6.106;2023-08-08T08:18:26;7.13;;;2.37;;
12725;SDS011;6427;49.754;6.106;2023-08-08T08:20:55;5.30;;;2.13;;
12725;SDS011;6427;49.754;6.106;2023-08-08T08:23:22;5.03;;;2.23;;
12725;SDS011;6427;49.754;6.106;2023-08-08T08:25:50;5.67;;;2.10;;
12725;SDS011;6427;49.754;6.106;2023-08-08T08:28:18;4.90;;;2.23;;
12725;SDS011;6427;49.754;6.106;2023-08-08T08:30:46;4.90;;;2.00;;
12725;SDS011;6427;49.754;6.106;2023-08-08T08:33:13;4.20;;;1.93;;
12725;SDS011;6427;49.754;6.106;2023-08-08T08:35:41;4.27;;;2.27;;
12725;SDS011;6427;49.754;6.106;2023-08-08T08:38:09;6.05;;;2.17;;
12725;SDS011;6427;49.754;6.106;2023-08-08T08:40:37;3.67;;;2.00;;
12725;SDS011;6427;49.754;6.106;2023-08-08T08:43:05;6.33;;;2.20;;
12725;SDS011;6427;49.754;6.106;2023-08-08T08:45:32;5.43;;;1.73;;
12725;SDS011;6427;49.754;6.106;2023-08-08T08:48:00;4.80;;;2.13;;
12725;SDS011;6427;49.754;6.106;2023-08-08T08:50:27;5.47;;;1.97;;
12725;SDS011;6427;49.754;6.106;2023-08-08T08:52:56;6.37;;;2.00;;
12725;SDS011;6427;49.754;6.106;2023-08-08T08:55:23;2.53;;;1.50;;
12725;SDS011;6427;49.754;6.106;2023-08-08T08:57:51;6.13;;;1.83;;
12725;SDS011;6427;49.754;6.106;2023-08-08T09:00:19;6.50;;;1.83;;
12725;SDS011;6427;49.754;6.106;2023-08-08T09:02:48;4.93;;;1.90;;
12725;SDS011;6427;49.754;6.106;2023-08-08T09:05:15;5.43;;;1.87;;
12725;SDS011;6427;49.754;6.106;2023-08-08T09:07:42;6.53;;;2.40;;
12725;SDS011;6427;49.754;6.106;2023-08-08T09:10:11;5.53;;;2.03;;
12725;SDS011;6427;49.754;6.106;2023-08-08T09:12:39;8.97;;;2.00;;
12725;SDS011;6427;49.754;6.106;2023-08-08T09:15:07;7.53;;;1.90;;
12725;SDS011;6427;49.754;6.106;2023-08-08T09:17:35;8.07;;;2.03;;
12725;SDS011;6427;49.754;6.106;2023-08-08T09:20:03;5.07;;;1.57;;
12725;SDS011;6427;49.754;6.106;2023-08-08T09:22:31;6.07;;;1.57;;
12725;SDS011;6427;49.754;6.106;2023-08-08T09:24:58;6.17;;;1.83;;
12725;SDS011;6427;49.754;6.106;2023-08-08T09:27:28;3.73;;;1.50;;
12725;SDS011;6427;49.754;6.106;2023-08-08T09:29:54;5.60;;;1.53;;
12725;SDS011;6427;49.754;6.106;2023-08-08T09:32:22;4.07;;;1.50;;
12725;SDS011;6427;49.754;6.106;2023-08-08T09:34:50;2.60;;;1.10;;
12725;SDS011;6427;49.754;6.106;2023-08-08T09:37:17;4.70;;;1.10;;
12725;SDS011;6427;49.754;6.106;2023-08-08T09:39:45;3.43;;;1.10;;
12725;SDS011;6427;49.754;6.106;2023-08-08T09:42:13;1.80;;;0.90;;
12725;SDS011;6427;49.754;6.106;2023-08-08T09:44:42;2.77;;;1.13;;
12725;SDS011;6427;49.754;6.106;2023-08-08T09:47:11;3.22;;;1.08;;
12725;SDS011;6427;49.754;6.106;2023-08-08T09:49:36;5.07;;;1.13;;
12725;SDS011;6427;49.754;6.106;2023-08-08T09:52:04;2.77;;;0.80;;
12725;SDS011;6427;49.754;6.106;2023-08-08T09:54:32;4.43;;;1.30;;
12725;SDS011;6427;49.754;6.106;2023-08-08T09:57:00;3.13;;;0.83;;
12725;SDS011;6427;49.754;6.106;2023-08-08T09:59:28;2.78;;;0.90;;
12725;SDS011;6427;49.754;6.106;2023-08-08T10:01:56;2.12;;;0.90;;
12725;SDS011;6427;49.754;6.106;2023-08-08T10:04:24;1.77;;;0.67;;
12725;SDS011;6427;49.754;6.106;2023-08-08T10:06:51;2.20;;;1.07;;
12725;SDS011;6427;49.754;6.106;2023-08-08T10:09:19;5.55;;;1.00;;
12725;SDS011;6427;49.754;6.106;2023-08-08T10:11:46;2.30;;;0.80;;
12725;SDS011;6427;49.754;6.106;2023-08-08T10:14:14;2.17;;;0.83;;
12725;SDS011;6427;49.754;6.106;2023-08-08T10:16:42;6.33;;;1.17;;
12725;SDS011;6427;49.754;6.106;2023-08-08T10:19:10;4.53;;;1.50;;
12725;SDS011;6427;49.754;6.106;2023-08-08T10:21:43;3.60;;;1.00;;
12725;SDS011;6427;49.754;6.106;2023-08-08T10:24:10;3.17;;;1.02;;
12725;SDS011;6427;49.754;6.106;2023-08-08T10:26:53;3.23;;;1.20;;
12725;SDS011;6427;49.754;6.106;2023-08-08T10:29:24;4.65;;;1.10;;
12725;SDS011;6427;49.754;6.106;2023-08-08T10:34:44;3.90;;;0.97;;
12725;SDS011;6427;49.754;6.106;2023-08-08T10:37:16;2.80;;;0.90;;
12725;SDS011;6427;49.754;6.106;2023-08-08T10:39:51;3.73;;;1.10;;
12725;SDS011;6427;49.754;6.106;2023-08-08T10:42:22;2.57;;;1.10;;
12725;SDS011;6427;49.754;6.106;2023-08-08T10:44:51;2.33;;;1.00;;
12725;SDS011;6427;49.754;6.106;2023-08-08T10:47:23;2.77;;;0.90;;
12725;SDS011;6427;49.754;6.106;2023-08-08T10:49:57;4.20;;;0.93;;
12725;SDS011;6427;49.754;6.106;2023-08-08T10:52:24;4.23;;;1.37;;
12725;SDS011;6427;49.754;6.106;2023-08-08T10:54:52;5.43;;;1.20;;
12725;SDS011;6427;49.754;6.106;2023-08-08T10:57:20;3.93;;;1.17;;
12725;SDS011;6427;49.754;6.106;2023-08-08T10:59:47;4.27;;;1.00;;
12725;SDS011;6427;49.754;6.106;2023-08-08T11:02:15;2.07;;;0.93;;
12725;SDS011;6427;49.754;6.106;2023-08-08T11:04:42;2.15;;;0.90;;
12725;SDS011;6427;49.754;6.106;2023-08-08T11:07:10;2.87;;;0.83;;
12725;SDS011;6427;49.754;6.106;2023-08-08T11:09:38;3.20;;;1.00;;
12725;SDS011;6427;49.754;6.106;2023-08-08T11:12:12;4.60;;;0.77;;
12725;SDS011;6427;49.754;6.106;2023-08-08T11:14:33;3.37;;;1.20;;
12725;SDS011;6427;49.754;6.106;2023-08-08T11:17:01;4.93;;;1.13;;
12725;SDS011;6427;49.754;6.106;2023-08-08T11:19:29;6.80;;;0.90;;
12725;SDS011;6427;49.754;6.106;2023-08-08T11:21:56;3.23;;;1.23;;
12725;SDS011;6427;49.754;6.106;2023-08-08T11:24:24;2.27;;;1.07;;
12725;SDS011;6427;49.754;6.106;2023-08-08T11:26:57;2.97;;;1.00;;
12725;SDS011;6427;49.754;6.106;2023-08-08T11:29:19;3.47;;;1.10;;
12725;SDS011;6427;49.754;6.106;2023-08-08T11:31:47;2.30;;;1.10;;
12725;SDS011;6427;49.754;6.106;2023-08-08T11:34:15;3.20;;;1.20;;
12725;SDS011;6427;49.754;6.106;2023-08-08T11:36:43;2.87;;;1.17;;
12725;SDS011;6427;49.754;6.106;2023-08-08T11:39:10;3.90;;;1.13;;
12725;SDS011;6427;49.754;6.106;2023-08-08T11:41:38;4.40;;;1.40;;
12725;SDS011;6427;49.754;6.106;2023-08-08T11:44:06;1.70;;;1.00;;
12725;SDS011;6427;49.754;6.106;2023-08-08T11:46:34;4.53;;;1.20;;
12725;SDS011;6427;49.754;6.106;2023-08-08T11:49:02;3.00;;;1.30;;
12725;SDS011;6427;49.754;6.106;2023-08-08T11:51:29;4.00;;;1.43;;
12725;SDS011;6427;49.754;6.106;2023-08-08T11:53:57;6.20;;;1.37;;
12725;SDS011;6427;49.754;6.106;2023-08-08T11:56:24;5.73;;;1.30;;
12725;SDS011;6427;49.754;6.106;2023-08-08T11:58:54;3.03;;;1.03;;
12725;SDS011;6427;49.754;6.106;2023-08-08T12:01:26;4.53;;;1.37;;
12725;SDS011;6427;49.754;6.106;2023-08-08T12:03:51;5.13;;;1.37;;
12725;SDS011;6427;49.754;6.106;2023-08-08T12:06:19;5.37;;;1.37;;
12725;SDS011;6427;49.754;6.106;2023-08-08T12:08:47;4.33;;;1.43;;
12725;SDS011;6427;49.754;6.106;2023-08-08T12:11:15;4.63;;;1.60;;
12725;SDS011;6427;49.754;6.106;2023-08-08T12:13:43;3.60;;;1.57;;
12725;SDS011;6427;49.754;6.106;2023-08-08T12:16:11;4.30;;;1.50;;
12725;SDS011;6427;49.754;6.106;2023-08-08T12:18:38;4.07;;;1.50;;
12725;SDS011;6427;49.754;6.106;2023-08-08T12:21:06;2.17;;;1.23;;
12725;SDS011;6427;49.754;6.106;2023-08-08T12:23:34;5.40;;;1.80;;
12725;SDS011;6427;49.754;6.106;2023-08-08T12:26:04;5.83;;;1.90;;
12725;SDS011;6427;49.754;6.106;2023-08-08T12:28:32;2.87;;;1.60;;
12725;SDS011;6427;49.754;6.106;2023-08-08T12:31:00;3.85;;;1.52;;
12725;SDS011;6427;49.754;6.106;2023-08-08T12:33:28;3.10;;;1.30;;
12725;SDS011;6427;49.754;6.106;2023-08-08T12:35:55;2.87;;;1.67;;
12725;SDS011;6427;49.754;6.106;2023-08-08T12:38:23;5.00;;;2.00;;
12725;SDS011;6427;49.754;6.106;2023-08-08T12:40:50;3.63;;;1.70;;
12725;SDS011;6427;49.754;6.106;2023-08-08T12:43:18;5.93;;;1.80;;
12725;SDS011;6427;49.754;6.106;2023-08-08T12:45:46;6.13;;;1.60;;
12725;SDS011;6427;49.754;6.106;2023-08-08T12:48:13;6.00;;;1.50;;
12725;SDS011;6427;49.754;6.106;2023-08-08T12:50:41;5.70;;;1.90;;
12725;SDS011;6427;49.754;6.106;2023-08-08T12:53:08;5.00;;;2.17;;
12725;SDS011;6427;49.754;6.106;2023-08-08T12:55:36;4.40;;;1.90;;
12725;SDS011;6427;49.754;6.106;2023-08-08T12:58:04;4.10;;;1.70;;
12725;SDS011;6427;49.754;6.106;2023-08-08T13:00:31;4.00;;;1.93;;
12725;SDS011;6427;49.754;6.106;2023-08-08T13:02:59;3.33;;;1.70;;
12725;SDS011;6427;49.754;6.106;2023-08-08T13:05:26;8.27;;;1.97;;
12725;SDS011;6427;49.754;6.106;2023-08-08T13:07:54;6.00;;;1.87;;
12725;SDS011;6427;49.754;6.106;2023-08-08T13:10:22;5.07;;;1.70;;
12725;SDS011;6427;49.754;6.106;2023-08-08T13:12:50;3.70;;;1.67;;
12725;SDS011;6427;49.754;6.106;2023-08-08T13:15:18;7.30;;;2.27;;
12725;SDS011;6427;49.754;6.106;2023-08-08T13:17:45;5.57;;;1.80;;
12725;SDS011;6427;49.754;6.106;2023-08-08T13:20:13;4.77;;;1.80;;
12725;SDS011;6427;49.754;6.106;2023-08-08T13:22:40;7.73;;;1.70;;
12725;SDS011;6427;49.754;6.106;2023-08-08T13:25:08;5.33;;;1.60;;
12725;SDS011;6427;49.754;6.106;2023-08-08T13:27:36;4.83;;;1.47;;
12725;SDS011;6427;49.754;6.106;2023-08-08T13:30:04;3.53;;;1.50;;
12725;SDS011;6427;49.754;6.106;2023-08-08T13:32:31;6.03;;;1.87;;
12725;SDS011;6427;49.754;6.106;2023-08-08T13:34:58;5.67;;;1.70;;
12725;SDS011;6427;49.754;6.106;2023-08-08T13:37:27;3.87;;;1.47;;
12725;SDS011;6427;49.754;6.106;2023-08-08T13:39:54;4.67;;;1.80;;
12725;SDS011;6427;49.754;6.106;2023-08-08T13:42:22;3.60;;;1.83;;
12725;SDS011;6427;49.754;6.106;2023-08-08T13:44:50;6.20;;;1.73;;
12725;SDS011;6427;49.754;6.106;2023-08-08T13:47:19;5.10;;;1.90;;
12725;SDS011;6427;49.754;6.106;2023-08-08T13:49:46;3.33;;;2.07;;
12725;SDS011;6427;49.754;6.106;2023-08-08T13:52:15;5.60;;;1.67;;
12725;SDS011;6427;49.754;6.106;2023-08-08T13:54:42;4.47;;;1.67;;
12725;SDS011;6427;49.754;6.106;2023-08-08T13:57:10;5.23;;;2.10;;
12725;SDS011;6427;49.754;6.106;2023-08-08T13:59:38;4.00;;;1.87;;
12725;SDS011;6427;49.754;6.106;2023-08-08T14:02:05;5.83;;;1.77;;
12725;SDS011;6427;49.754;6.106;2023-08-08T14:04:33;2.67;;;1.33;;
12725;SDS011;6427;49.754;6.106;2023-08-08T14:07:01;3.67;;;2.00;;
12725;SDS011;6427;49.754;6.106;2023-08-08T14:09:29;4.63;;;1.80;;
12725;SDS011;6427;49.754;6.106;2023-08-08T14:11:56;5.83;;;1.90;;
12725;SDS011;6427;49.754;6.106;2023-08-08T14:14:25;3.40;;;1.57;;
12725;SDS011;6427;49.754;6.106;2023-08-08T14:16:52;6.43;;;2.10;;
12725;SDS011;6427;49.754;6.106;2023-08-08T14:19:20;1.80;;;1.50;;
12725;SDS011;6427;49.754;6.106;2023-08-08T14:21:48;4.40;;;1.67;;
12725;SDS011;6427;49.754;6.106;2023-08-08T14:24:15;3.05;;;1.80;;
12725;SDS011;6427;49.754;6.106;2023-08-08T14:26:44;3.42;;;1.80;;
12725;SDS011;6427;49.754;6.106;2023-08-08T14:29:11;8.47;;;2.17;;
12725;SDS011;6427;49.754;6.106;2023-08-08T14:31:39;3.60;;;2.00;;
12725;SDS011;6427;49.754;6.106;2023-08-08T14:34:06;3.17;;;1.53;;
12725;SDS011;6427;49.754;6.106;2023-08-08T14:36:35;5.87;;;1.97;;
12725;SDS011;6427;49.754;6.106;2023-08-08T14:39:02;2.80;;;1.67;;
12725;SDS011;6427;49.754;6.106;2023-08-08T14:41:30;3.63;;;1.67;;
12725;SDS011;6427;49.754;6.106;2023-08-08T14:43:58;4.63;;;2.00;;
12725;SDS011;6427;49.754;6.106;2023-08-08T14:46:25;3.47;;;1.63;;
12725;SDS011;6427;49.754;6.106;2023-08-08T14:48:53;4.07;;;1.50;;
12725;SDS011;6427;49.754;6.106;2023-08-08T14:51:20;4.77;;;1.60;;
12725;SDS011;6427;49.754;6.106;2023-08-08T14:53:48;2.77;;;1.60;;
12725;SDS011;6427;49.754;6.106;2023-08-08T14:56:16;4.57;;;1.77;;
12725;SDS011;6427;49.754;6.106;2023-08-08T14:58:44;2.77;;;1.17;;
12725;SDS011;6427;49.754;6.106;2023-08-08T15:01:12;3.03;;;1.37;;
12725;SDS011;6427;49.754;6.106;2023-08-08T15:03:39;2.60;;;1.50;;
12725;SDS011;6427;49.754;6.106;2023-08-08T15:06:08;3.20;;;1.50;;
12725;SDS011;6427;49.754;6.106;2023-08-08T15:08:35;2.90;;;1.80;;